Time;durP1;ratioP1;P1;durP2;ratioP2;P2;SDS_P1;SDS_P2;PMS_P1;PMS_P2;Temp;Humidity;BMP_temperature;BMP_pressure;BME280_temperature;BME280_humidity;BME280_pressure;Samples;Min_cycle;Max_cycle;Signal;HPM_P1;HPM_P2
2021/12/22 00:01:14;;;;;;;25.95;17.33;;;;;;;;;;5027664;28;20425;-75
2021/12/22 00:03:45;;;;;;;24.70;17.55;;;;;;;;;;5016081;28;20093;-75
2021/12/22 00:06:13;;;;;;;24.00;16.42;;;;;;;;;;5001092;28;20429;-75
2021/12/22 00:08:39;;;;;;;24.63;16.77;;;;;;;;;;5044168;28;20120;-76
2021/12/22 00:11:05;;;;;;;29.30;17.42;;;;;;;;;;5030918;28;20045;-76
2021/12/22 00:13:31;;;;;;;26.77;18.25;;;;;;;;;;5016694;28;20049;-76
2021/12/22 00:15:58;;;;;;;24.17;16.92;;;;;;;;;;5034229;28;20188;-75
2021/12/22 00:18:24;;;;;;;24.13;17.63;;;;;;;;;;5041985;28;20056;-74
2021/12/22 00:20:50;;;;;;;25.92;17.65;;;;;;;;;;5054714;28;20045;-76
2021/12/22 00:23:16;;;;;;;25.23;16.92;;;;;;;;;;5044805;28;20106;-75
2021/12/22 00:25:42;;;;;;;25.08;16.88;;;;;;;;;;5054365;28;20041;-76
2021/12/22 00:28:08;;;;;;;21.45;16.40;;;;;;;;;;5054946;28;20094;-75
2021/12/22 00:30:37;;;;;;;23.63;17.40;;;;;;;;;;5052922;28;20175;-75
2021/12/22 00:33:05;;;;;;;27.70;17.58;;;;;;;;;;5042537;28;20037;-76
2021/12/22 00:35:39;;;;;;;21.67;15.63;;;;;;;;;;5045830;28;20065;-76
2021/12/22 00:38:06;;;;;;;21.98;15.88;;;;;;;;;;5056237;28;20451;-76
2021/12/22 00:40:32;;;;;;;21.60;15.85;;;;;;;;;;5041931;28;20041;-74
2021/12/22 00:42:58;;;;;;;24.08;16.63;;;;;;;;;;5048474;28;20038;-76
2021/12/22 00:45:27;;;;;;;22.85;15.27;;;;;;;;;;5066458;28;20051;-77
2021/12/22 00:47:53;;;;;;;21.67;14.88;;;;;;;;;;5038429;28;20040;-76
2021/12/22 00:50:20;;;;;;;22.63;15.57;;;;;;;;;;5048842;28;20037;-76
2021/12/22 00:52:46;;;;;;;21.55;14.90;;;;;;;;;;5048653;28;20037;-75
2021/12/22 00:55:17;;;;;;;21.40;14.55;;;;;;;;;;5053217;28;20059;-77
2021/12/22 00:57:43;;;;;;;23.05;14.85;;;;;;;;;;5053318;28;20098;-75
2021/12/22 01:00:09;;;;;;;24.58;15.02;;;;;;;;;;5039300;28;20044;-76
2021/12/22 01:02:35;;;;;;;22.83;14.07;;;;;;;;;;5051819;28;20044;-77
2021/12/22 01:05:02;;;;;;;19.38;14.18;;;;;;;;;;5052884;28;20057;-76
2021/12/22 01:07:28;;;;;;;18.30;14.95;;;;;;;;;;5057928;28;20059;-74
2021/12/22 01:09:54;;;;;;;24.02;14.82;;;;;;;;;;5058737;28;20044;-76
2021/12/22 01:12:20;;;;;;;22.23;14.55;;;;;;;;;;5051915;28;20044;-74
2021/12/22 01:14:46;;;;;;;19.90;14.43;;;;;;;;;;5048627;28;20037;-75
2021/12/22 01:17:14;;;;;;;23.77;15.35;;;;;;;;;;5052416;28;20053;-76
2021/12/22 01:20:08;;;;;;;20.00;14.88;;;;;;;;;;5053163;28;20052;-76
2021/12/22 01:22:47;;;;;;;21.33;14.35;;;;;;;;;;5052787;28;20055;-76
2021/12/22 01:25:15;;;;;;;19.98;13.90;;;;;;;;;;5051008;28;20045;-77
2021/12/22 01:27:42;;;;;;;16.85;14.07;;;;;;;;;;5038058;28;20425;-76
2021/12/22 01:30:09;;;;;;;18.60;13.82;;;;;;;;;;5048857;28;20060;-76
2021/12/22 01:32:35;;;;;;;18.52;14.00;;;;;;;;;;5041580;28;20033;-76
2021/12/22 01:35:01;;;;;;;20.30;13.90;;;;;;;;;;5052488;28;20049;-76
2021/12/22 01:37:27;;;;;;;19.00;14.32;;;;;;;;;;5057415;28;20456;-76
2021/12/22 01:39:53;;;;;;;20.08;14.20;;;;;;;;;;5052519;28;20055;-76
2021/12/22 01:42:20;;;;;;;22.38;15.10;;;;;;;;;;5051134;28;20044;-76
2021/12/22 01:50:32;;;;;;;22.48;14.43;;;;;;;;;;5044219;28;20049;-75
2021/12/22 01:53:00;;;;;;;22.77;14.80;;;;;;;;;;5052397;28;20061;-75
2021/12/22 01:55:34;;;;;;;22.02;14.52;;;;;;;;;;5042357;28;20051;-77
2021/12/22 01:58:01;;;;;;;22.42;14.45;;;;;;;;;;5056485;28;20071;-75
2021/12/22 02:00:28;;;;;;;22.40;14.68;;;;;;;;;;5056238;28;20047;-75
2021/12/22 02:02:55;;;;;;;20.80;14.50;;;;;;;;;;5049948;28;20045;-75
2021/12/22 02:05:21;;;;;;;22.33;14.80;;;;;;;;;;5049787;28;20432;-75
2021/12/22 02:07:49;;;;;;;19.45;14.20;;;;;;;;;;5048428;28;20040;-75
2021/12/22 02:12:49;;;;;;;22.13;15.05;;;;;;;;;;5047201;28;20441;-76
2021/12/22 02:15:16;;;;;;;25.55;14.68;;;;;;;;;;5037742;28;20049;-75
2021/12/22 02:17:42;;;;;;;19.38;14.77;;;;;;;;;;5043058;28;20041;-75
2021/12/22 02:20:09;;;;;;;21.08;15.02;;;;;;;;;;5039558;28;20081;-75
2021/12/22 02:22:37;;;;;;;21.73;15.18;;;;;;;;;;5054399;28;20049;-75
2021/12/22 02:25:11;;;;;;;24.52;15.05;;;;;;;;;;5055536;28;20085;-75
2021/12/22 02:27:44;;;;;;;22.45;15.02;;;;;;;;;;5056783;28;20077;-74
2021/12/22 02:30:17;;;;;;;20.08;14.80;;;;;;;;;;5053139;28;20112;-74
2021/12/22 02:35:26;;;;;;;23.20;14.82;;;;;;;;;;5065285;28;20084;-76
2021/12/22 02:37:52;;;;;;;21.02;14.82;;;;;;;;;;5056666;28;20464;-75
2021/12/22 02:40:25;;;;;;;20.95;14.60;;;;;;;;;;5039113;28;20464;-75
2021/12/22 02:43:02;;;;;;;21.27;14.57;;;;;;;;;;5039239;28;20055;-74
2021/12/22 02:45:28;;;;;;;22.92;15.80;;;;;;;;;;5055195;28;20051;-75
2021/12/22 02:47:54;;;;;;;24.35;15.40;;;;;;;;;;5031777;28;20041;-75
2021/12/22 02:50:21;;;;;;;22.35;14.63;;;;;;;;;;5035656;28;20038;-75
2021/12/22 02:53:03;;;;;;;24.23;15.02;;;;;;;;;;5025168;28;20049;-76
2021/12/22 02:55:42;;;;;;;23.25;15.07;;;;;;;;;;5054309;28;20047;-74
2021/12/22 02:58:09;;;;;;;23.00;15.10;;;;;;;;;;5055766;28;20070;-75
2021/12/22 03:06:06;;;;;;;22.17;14.93;;;;;;;;;;5034965;28;20183;-74
2021/12/22 03:08:32;;;;;;;21.42;14.73;;;;;;;;;;5035451;28;20326;-75
2021/12/22 03:10:58;;;;;;;21.60;14.23;;;;;;;;;;5037671;28;20041;-75
2021/12/22 03:13:24;;;;;;;20.45;14.48;;;;;;;;;;5055556;28;20136;-75
2021/12/22 03:15:50;;;;;;;20.88;13.73;;;;;;;;;;5038905;28;20068;-75
2021/12/22 03:18:17;;;;;;;19.95;14.13;;;;;;;;;;5052493;28;20045;-75
2021/12/22 03:20:47;;;;;;;20.02;14.25;;;;;;;;;;5054864;28;20048;-74
2021/12/22 03:23:13;;;;;;;19.65;13.80;;;;;;;;;;5055478;28;20451;-75
2021/12/22 03:25:39;;;;;;;17.55;13.55;;;;;;;;;;5054807;28;20049;-75
2021/12/22 03:28:06;;;;;;;18.77;13.68;;;;;;;;;;5054942;28;20045;-76
2021/12/22 03:30:32;;;;;;;20.75;13.93;;;;;;;;;;5038009;28;20106;-74
2021/12/22 03:32:58;;;;;;;19.13;13.38;;;;;;;;;;5048934;28;20080;-75
2021/12/22 03:35:24;;;;;;;19.77;13.73;;;;;;;;;;5053236;28;20124;-75
2021/12/22 03:37:54;;;;;;;21.52;14.00;;;;;;;;;;5054787;28;20098;-75
2021/12/22 03:40:21;;;;;;;21.35;14.13;;;;;;;;;;5037963;28;20087;-75
2021/12/22 03:42:48;;;;;;;18.40;13.63;;;;;;;;;;5055451;28;20041;-76
2021/12/22 03:45:14;;;;;;;22.92;13.77;;;;;;;;;;5054466;28;20110;-75
2021/12/22 03:47:40;;;;;;;19.45;13.88;;;;;;;;;;5038116;28;20425;-76
2021/12/22 03:50:07;;;;;;;20.25;13.63;;;;;;;;;;5055621;28;20045;-75
2021/12/22 03:52:34;;;;;;;22.33;13.30;;;;;;;;;;5054600;28;20132;-74
2021/12/22 03:55:00;;;;;;;19.40;14.13;;;;;;;;;;5053714;28;20055;-74
2021/12/22 03:57:27;;;;;;;18.75;13.43;;;;;;;;;;5038559;28;20052;-76
2021/12/22 03:59:53;;;;;;;20.52;13.18;;;;;;;;;;5040241;28;20056;-75
2021/12/22 04:02:21;;;;;;;18.33;13.02;;;;;;;;;;5041086;28;20036;-74
2021/12/22 04:04:49;;;;;;;18.83;13.57;;;;;;;;;;5047742;28;20066;-75
2021/12/22 04:07:15;;;;;;;19.17;12.73;;;;;;;;;;5037606;28;20413;-76
2021/12/22 04:09:42;;;;;;;21.17;13.90;;;;;;;;;;5054586;28;20044;-75
2021/12/22 04:12:08;;;;;;;16.13;12.60;;;;;;;;;;5070547;28;20044;-75
2021/12/22 04:14:34;;;;;;;20.83;13.75;;;;;;;;;;5065042;28;20044;-75
2021/12/22 04:17:00;;;;;;;21.10;13.52;;;;;;;;;;5057407;28;20475;-75
2021/12/22 04:19:26;;;;;;;20.27;13.77;;;;;;;;;;5045216;28;20049;-75
2021/12/22 04:21:52;;;;;;;21.77;14.10;;;;;;;;;;5054777;28;20055;-74
2021/12/22 04:24:19;;;;;;;22.05;13.95;;;;;;;;;;5037937;28;20062;-74
2021/12/22 04:26:45;;;;;;;22.02;14.05;;;;;;;;;;5054236;28;20037;-75
2021/12/22 04:29:12;;;;;;;19.73;13.23;;;;;;;;;;5036895;28;20053;-75
2021/12/22 04:31:38;;;;;;;19.38;13.98;;;;;;;;;;5025703;28;20099;-74
2021/12/22 04:34:08;;;;;;;20.33;13.43;;;;;;;;;;5039413;28;20057;-75
2021/12/22 04:36:41;;;;;;;21.55;14.05;;;;;;;;;;5053769;28;20048;-73
2021/12/22 04:39:08;;;;;;;20.23;13.27;;;;;;;;;;5036572;28;20103;-75
2021/12/22 04:41:35;;;;;;;21.48;13.85;;;;;;;;;;5037344;28;20372;-74
2021/12/22 04:44:01;;;;;;;19.90;13.38;;;;;;;;;;5053364;28;20128;-75
2021/12/22 04:46:27;;;;;;;21.63;13.70;;;;;;;;;;5054666;28;20056;-73
2021/12/22 04:48:53;;;;;;;18.98;13.98;;;;;;;;;;5054168;28;20056;-74
2021/12/22 04:51:25;;;;;;;19.10;14.23;;;;;;;;;;5049935;28;20352;-74
2021/12/22 04:53:58;;;;;;;20.10;13.77;;;;;;;;;;5038920;28;20037;-75
2021/12/22 04:56:24;;;;;;;19.98;14.10;;;;;;;;;;5053151;28;20482;-73
2021/12/22 04:58:50;;;;;;;23.25;14.45;;;;;;;;;;5053290;28;20044;-74
2021/12/22 05:01:16;;;;;;;22.67;13.57;;;;;;;;;;5053716;28;20499;-74
2021/12/22 05:03:42;;;;;;;21.70;14.18;;;;;;;;;;5035207;28;20044;-73
2021/12/22 05:06:08;;;;;;;20.65;13.75;;;;;;;;;;5053651;28;20044;-73
2021/12/22 05:08:35;;;;;;;25.42;15.73;;;;;;;;;;5053187;28;20059;-74
2021/12/22 05:11:01;;;;;;;23.80;14.40;;;;;;;;;;5053557;28;20133;-74
2021/12/22 05:13:28;;;;;;;20.08;13.55;;;;;;;;;;5053229;28;20047;-74
2021/12/22 05:15:54;;;;;;;20.52;13.18;;;;;;;;;;5052421;28;20122;-75
2021/12/22 05:18:24;;;;;;;22.27;13.88;;;;;;;;;;5060216;28;20049;-76
2021/12/22 05:20:50;;;;;;;20.67;14.20;;;;;;;;;;5072841;28;20139;-74
2021/12/22 05:23:17;;;;;;;22.73;13.90;;;;;;;;;;5033334;28;20041;-74
2021/12/22 05:25:43;;;;;;;22.27;14.00;;;;;;;;;;5066515;28;20041;-75
2021/12/22 05:28:10;;;;;;;23.45;12.82;;;;;;;;;;5067561;28;20361;-74
2021/12/22 05:30:36;;;;;;;21.23;14.45;;;;;;;;;;5030742;28;20063;-74
2021/12/22 05:33:02;;;;;;;26.85;14.45;;;;;;;;;;5050827;28;20482;-73
2021/12/22 05:35:28;;;;;;;22.10;14.43;;;;;;;;;;5053620;28;20383;-74
2021/12/22 05:37:55;;;;;;;26.05;14.32;;;;;;;;;;5034985;28;20045;-74
2021/12/22 05:40:21;;;;;;;25.48;14.63;;;;;;;;;;5032978;28;20033;-75
2021/12/22 05:42:47;;;;;;;23.63;14.45;;;;;;;;;;5049103;28;20056;-75
2021/12/22 05:45:13;;;;;;;22.13;14.02;;;;;;;;;;5052286;28;20033;-73
2021/12/22 05:47:39;;;;;;;26.02;15.18;;;;;;;;;;5052961;28;20084;-73
2021/12/22 05:50:07;;;;;;;20.92;13.15;;;;;;;;;;5052579;28;20033;-75
2021/12/22 05:52:33;;;;;;;23.90;14.95;;;;;;;;;;5051022;28;20140;-74
2021/12/22 05:54:59;;;;;;;24.83;14.80;;;;;;;;;;5051542;28;20065;-74
2021/12/22 05:57:25;;;;;;;23.00;13.70;;;;;;;;;;5016531;28;20045;-75
2021/12/22 05:59:51;;;;;;;23.00;14.43;;;;;;;;;;5033436;28;20092;-73
2021/12/22 06:02:17;;;;;;;20.52;13.85;;;;;;;;;;5049729;28;20107;-74
2021/12/22 06:04:43;;;;;;;20.92;13.95;;;;;;;;;;5052647;28;20056;-73
2021/12/22 06:07:09;;;;;;;20.27;14.07;;;;;;;;;;5035978;28;20051;-74
2021/12/22 06:09:35;;;;;;;21.42;13.50;;;;;;;;;;5036251;28;20468;-73
2021/12/22 06:12:01;;;;;;;19.85;14.25;;;;;;;;;;5048888;28;20081;-74
2021/12/22 06:14:28;;;;;;;21.83;13.90;;;;;;;;;;5032897;28;20049;-74
2021/12/22 06:16:54;;;;;;;20.02;13.93;;;;;;;;;;5049422;28;20037;-73
2021/12/22 06:19:21;;;;;;;21.42;13.90;;;;;;;;;;5052550;28;20053;-73
2021/12/22 06:21:47;;;;;;;23.30;14.48;;;;;;;;;;5052405;28;20167;-75
2021/12/22 06:24:13;;;;;;;27.08;15.93;;;;;;;;;;5036330;28;20048;-75
2021/12/22 06:26:39;;;;;;;20.77;14.15;;;;;;;;;;5052298;28;20055;-74
2021/12/22 06:29:05;;;;;;;22.33;14.07;;;;;;;;;;5053024;28;20049;-74
2021/12/22 06:31:31;;;;;;;23.02;14.43;;;;;;;;;;5034563;28;20091;-75
2021/12/22 06:33:57;;;;;;;21.48;14.80;;;;;;;;;;5039135;28;20368;-74
2021/12/22 06:36:23;;;;;;;22.52;13.98;;;;;;;;;;5029481;28;20128;-73
2021/12/22 06:38:49;;;;;;;22.98;16.15;;;;;;;;;;5053348;28;20053;-73
2021/12/22 06:41:15;;;;;;;24.42;16.17;;;;;;;;;;5040124;28;20042;-75
2021/12/22 06:43:41;;;;;;;24.90;15.35;;;;;;;;;;5035723;28;20060;-74
2021/12/22 06:46:09;;;;;;;22.73;14.30;;;;;;;;;;5061428;28;20107;-74
2021/12/22 06:48:35;;;;;;;22.85;14.70;;;;;;;;;;5037835;28;20041;-74
2021/12/22 06:51:01;;;;;;;22.23;14.85;;;;;;;;;;5046092;28;20052;-74
2021/12/22 06:53:27;;;;;;;23.35;15.57;;;;;;;;;;5036629;28;20049;-75
2021/12/22 06:55:53;;;;;;;23.25;15.93;;;;;;;;;;5055619;28;20044;-75
2021/12/22 06:58:20;;;;;;;23.88;15.95;;;;;;;;;;5056271;28;20041;-77
2021/12/22 07:00:46;;;;;;;23.52;14.68;;;;;;;;;;5054560;28;20052;-75
2021/12/22 07:03:13;;;;;;;24.05;15.43;;;;;;;;;;5050589;28;20055;-76
2021/12/22 07:05:39;;;;;;;26.75;16.17;;;;;;;;;;5055695;28;20121;-75
2021/12/22 07:08:05;;;;;;;25.17;15.48;;;;;;;;;;5039038;28;20137;-71
2021/12/22 07:10:31;;;;;;;24.42;14.57;;;;;;;;;;5052993;28;20045;-74
2021/12/22 07:12:57;;;;;;;22.88;15.15;;;;;;;;;;5054971;28;20060;-74
2021/12/22 07:15:23;;;;;;;24.17;15.35;;;;;;;;;;5051730;28;20338;-74
2021/12/22 07:17:52;;;;;;;25.40;15.93;;;;;;;;;;5018780;28;20041;-77
2021/12/22 07:20:19;;;;;;;24.00;16.05;;;;;;;;;;5023641;28;20033;-73
2021/12/22 07:22:45;;;;;;;24.95;15.90;;;;;;;;;;5055305;28;20120;-74
2021/12/22 07:25:18;;;;;;;23.58;15.30;;;;;;;;;;5026401;28;20060;-75
2021/12/22 07:27:44;;;;;;;24.95;15.27;;;;;;;;;;5048793;28;20138;-75
2021/12/22 07:30:10;;;;;;;22.27;14.85;;;;;;;;;;5040221;28;20048;-73
2021/12/22 07:32:37;;;;;;;22.27;15.48;;;;;;;;;;5060297;28;20407;-74
2021/12/22 07:35:05;;;;;;;24.70;15.48;;;;;;;;;;5025179;28;20041;-74
2021/12/22 07:37:34;;;;;;;25.15;14.68;;;;;;;;;;5051410;28;20037;-74
2021/12/22 07:40:00;;;;;;;25.23;15.80;;;;;;;;;;5055438;28;20333;-73
2021/12/22 07:42:26;;;;;;;24.75;14.68;;;;;;;;;;5052785;28;20029;-76
2021/12/22 07:44:52;;;;;;;21.88;14.57;;;;;;;;;;5048373;28;20052;-73
2021/12/22 07:47:18;;;;;;;25.23;15.32;;;;;;;;;;5054878;28;20045;-74
2021/12/22 07:49:44;;;;;;;22.98;14.45;;;;;;;;;;5045677;28;20048;-72
2021/12/22 07:52:10;;;;;;;24.38;14.48;;;;;;;;;;5035816;28;20037;-74
2021/12/22 07:54:38;;;;;;;22.95;14.32;;;;;;;;;;5036046;28;20037;-71
2021/12/22 07:57:04;;;;;;;20.88;14.07;;;;;;;;;;5051039;28;20028;-75
2021/12/22 07:59:30;;;;;;;21.08;14.15;;;;;;;;;;5071796;28;20037;-73
2021/12/22 08:01:57;;;;;;;21.25;13.77;;;;;;;;;;5018235;28;20041;-73
2021/12/22 08:04:23;;;;;;;19.48;13.27;;;;;;;;;;5035088;28;20033;-77
2021/12/22 08:06:50;;;;;;;21.35;13.98;;;;;;;;;;5055290;28;20048;-73
2021/12/22 08:09:16;;;;;;;21.98;13.70;;;;;;;;;;5054219;28;20041;-73
2021/12/22 08:11:42;;;;;;;20.63;13.43;;;;;;;;;;5037679;28;20040;-73
2021/12/22 08:14:08;;;;;;;22.23;14.15;;;;;;;;;;5037923;28;20040;-75
2021/12/22 08:16:34;;;;;;;25.33;14.30;;;;;;;;;;5037098;28;20053;-74
2021/12/22 08:19:01;;;;;;;22.63;14.23;;;;;;;;;;5018336;28;20119;-79
2021/12/22 08:21:27;;;;;;;26.17;14.27;;;;;;;;;;5035132;28;20068;-74
2021/12/22 08:23:53;;;;;;;20.67;13.68;;;;;;;;;;5054304;28;20108;-73
2021/12/22 08:26:19;;;;;;;23.70;14.45;;;;;;;;;;5059859;28;20048;-74
2021/12/22 08:28:48;;;;;;;21.65;13.65;;;;;;;;;;5054743;28;20063;-76
2021/12/22 08:31:15;;;;;;;23.25;14.07;;;;;;;;;;5038770;28;20115;-78
2021/12/22 08:33:45;;;;;;;24.52;14.63;;;;;;;;;;5044067;28;20041;-74
2021/12/22 08:39:00;;;;;;;23.55;14.15;;;;;;;;;;5045721;28;20079;-74
2021/12/22 08:41:33;;;;;;;21.30;14.38;;;;;;;;;;5045985;28;20053;-73
2021/12/22 08:44:01;;;;;;;27.77;15.15;;;;;;;;;;5040447;28;20041;-74
2021/12/22 08:46:28;;;;;;;24.90;13.57;;;;;;;;;;5036939;28;20064;-75
2021/12/22 08:48:56;;;;;;;26.38;14.07;;;;;;;;;;5039005;28;20064;-74
2021/12/22 08:51:25;;;;;;;21.98;14.02;;;;;;;;;;5051882;28;20119;-75
2021/12/22 08:53:52;;;;;;;22.70;13.60;;;;;;;;;;5037377;28;20437;-73
2021/12/22 08:56:19;;;;;;;22.98;13.57;;;;;;;;;;5037831;28;20052;-73
2021/12/22 08:58:45;;;;;;;19.48;13.27;;;;;;;;;;5027446;28;20037;-74
2021/12/22 09:01:11;;;;;;;21.42;12.18;;;;;;;;;;5046501;28;20045;-75
2021/12/22 09:03:37;;;;;;;22.50;13.68;;;;;;;;;;5048649;28;20045;-73
2021/12/22 09:06:03;;;;;;;20.65;13.00;;;;;;;;;;5044801;28;20107;-75
2021/12/22 09:08:29;;;;;;;24.10;13.50;;;;;;;;;;5029701;28;20049;-75
2021/12/22 09:10:56;;;;;;;23.25;13.60;;;;;;;;;;5042149;28;20436;-76
2021/12/22 09:13:22;;;;;;;22.52;13.82;;;;;;;;;;5050737;28;20032;-76
2021/12/22 09:15:48;;;;;;;22.27;12.90;;;;;;;;;;5034492;28;20029;-76
2021/12/22 09:18:14;;;;;;;22.45;12.98;;;;;;;;;;5041398;28;20167;-77
2021/12/22 09:20:40;;;;;;;21.33;13.27;;;;;;;;;;5051799;28;20044;-75
2021/12/22 09:23:07;;;;;;;20.75;13.27;;;;;;;;;;5051486;28;20384;-75
2021/12/22 09:25:33;;;;;;;22.60;13.40;;;;;;;;;;5043230;28;20109;-75
2021/12/22 09:28:00;;;;;;;20.95;13.18;;;;;;;;;;5049694;28;20047;-75
2021/12/22 09:30:27;;;;;;;21.02;13.07;;;;;;;;;;5052101;28;20099;-74
2021/12/22 09:32:53;;;;;;;21.80;13.15;;;;;;;;;;5052396;28;20051;-74
2021/12/22 09:35:19;;;;;;;20.10;12.77;;;;;;;;;;5049965;28;20411;-74
2021/12/22 09:37:45;;;;;;;19.13;12.02;;;;;;;;;;5051739;28;20057;-76
2021/12/22 09:40:11;;;;;;;19.92;12.35;;;;;;;;;;5059502;28;20126;-75
2021/12/22 09:42:40;;;;;;;22.30;13.32;;;;;;;;;;5037143;28;20055;-75
2021/12/22 09:45:07;;;;;;;24.00;13.98;;;;;;;;;;5053732;28;20463;-73
2021/12/22 09:47:48;;;;;;;26.25;13.60;;;;;;;;;;5045836;28;20048;-76
2021/12/22 09:50:24;;;;;;;20.63;13.00;;;;;;;;;;5040433;28;20124;-75
2021/12/22 09:52:50;;;;;;;20.23;13.20;;;;;;;;;;5051602;28;20392;-75
2021/12/22 09:55:16;;;;;;;24.05;12.60;;;;;;;;;;5035661;28;20502;-73
2021/12/22 09:57:44;;;;;;;19.58;11.85;;;;;;;;;;5053055;28;20033;-77
2021/12/22 10:00:10;;;;;;;19.40;11.68;;;;;;;;;;5048127;28;20117;-77
2021/12/22 10:02:36;;;;;;;21.67;12.43;;;;;;;;;;5048179;28;20049;-74
2021/12/22 10:05:03;;;;;;;17.67;12.35;;;;;;;;;;5049707;28;20051;-74
2021/12/22 10:07:31;;;;;;;20.77;12.98;;;;;;;;;;5051823;28;20037;-76
2021/12/22 10:10:03;;;;;;;27.98;13.18;;;;;;;;;;5034248;28;20049;-74
2021/12/22 10:12:29;;;;;;;24.70;12.70;;;;;;;;;;5052657;28;20029;-76
2021/12/22 10:14:57;;;;;;;22.70;12.82;;;;;;;;;;5046613;28;20029;-76
2021/12/22 10:17:43;;;;;;;23.05;12.30;;;;;;;;;;5051893;28;20414;-75
2021/12/22 10:20:09;;;;;;;24.30;13.00;;;;;;;;;;5055435;28;20071;-75
2021/12/22 10:22:37;;;;;;;20.92;13.48;;;;;;;;;;5051184;28;20425;-76
2021/12/22 10:25:10;;;;;;;24.65;12.55;;;;;;;;;;5018599;28;20056;-76
2021/12/22 10:27:37;;;;;;;45.70;15.00;;;;;;;;;;5022821;28;20135;-77
2021/12/22 10:30:36;;;;;;;21.40;12.73;;;;;;;;;;5043740;28;20111;-75
2021/12/22 10:33:11;;;;;;;23.65;12.25;;;;;;;;;;5018002;28;20059;-75
2021/12/22 10:35:38;;;;;;;21.42;12.55;;;;;;;;;;5037567;28;20120;-76
2021/12/22 10:38:06;;;;;;;22.10;12.40;;;;;;;;;;5035844;28;20068;-76
2021/12/22 10:40:34;;;;;;;21.30;12.75;;;;;;;;;;5056631;28;20037;-77
2021/12/22 10:43:00;;;;;;;23.60;13.52;;;;;;;;;;5064148;28;20094;-76
2021/12/22 10:45:29;;;;;;;22.17;12.88;;;;;;;;;;5057145;28;20049;-76
2021/12/22 10:50:43;;;;;;;22.00;12.85;;;;;;;;;;5057528;28;20037;-75
2021/12/22 10:53:12;;;;;;;21.67;12.90;;;;;;;;;;5055988;28;20453;-77
2021/12/22 10:55:39;;;;;;;19.95;13.07;;;;;;;;;;5038479;28;20134;-77
2021/12/22 10:58:25;;;;;;;20.52;13.32;;;;;;;;;;5055757;28;20048;-76
2021/12/22 11:01:10;;;;;;;19.45;13.20;;;;;;;;;;5050994;28;20384;-75
2021/12/22 11:03:40;;;;;;;21.80;13.10;;;;;;;;;;5037802;28;20037;-76
2021/12/22 11:06:16;;;;;;;20.13;11.95;;;;;;;;;;5047183;28;20138;-78
2021/12/22 11:08:54;;;;;;;20.75;12.73;;;;;;;;;;5046500;28;20045;-78
2021/12/22 11:11:20;;;;;;;21.45;12.63;;;;;;;;;;5055006;28;20120;-77
2021/12/22 11:14:00;;;;;;;21.45;13.50;;;;;;;;;;5037559;28;20199;-75
2021/12/22 11:16:26;;;;;;;19.10;12.68;;;;;;;;;;5056023;28;20135;-76
2021/12/22 11:18:52;;;;;;;22.67;13.05;;;;;;;;;;5054932;28;20461;-76
2021/12/22 11:21:29;;;;;;;22.23;13.52;;;;;;;;;;5048789;28;20082;-75
2021/12/22 11:23:56;;;;;;;22.27;13.57;;;;;;;;;;5052401;28;20124;-73
2021/12/22 11:26:22;;;;;;;21.08;12.85;;;;;;;;;;5024499;28;20049;-76
2021/12/22 11:28:49;;;;;;;21.52;12.88;;;;;;;;;;5039094;28;20038;-75
2021/12/22 11:31:15;;;;;;;21.35;12.55;;;;;;;;;;5047154;28;20047;-74
2021/12/22 11:33:41;;;;;;;21.42;13.55;;;;;;;;;;5056083;28;20037;-73
2021/12/22 11:36:08;;;;;;;20.70;13.23;;;;;;;;;;5046751;28;20041;-76
2021/12/22 11:38:34;;;;;;;22.27;13.40;;;;;;;;;;5035979;28;20075;-76
2021/12/22 11:41:42;;;;;;;25.15;13.57;;;;;;;;;;5036462;28;20461;-75
2021/12/22 11:43:56;;;;;;;20.63;13.43;;;;;;;;;;5042501;28;20084;-75
2021/12/22 11:46:27;;;;;;;19.95;13.60;;;;;;;;;;5041088;28;20140;-75
2021/12/22 11:48:53;;;;;;;20.90;12.52;;;;;;;;;;5049457;28;20045;-75
2021/12/22 11:51:23;;;;;;;22.13;12.85;;;;;;;;;;5042318;28;20033;-74
2021/12/22 11:53:52;;;;;;;23.23;13.48;;;;;;;;;;5051117;28;20468;-76
2021/12/22 11:56:37;;;;;;;21.83;13.48;;;;;;;;;;5037086;28;20056;-74
2021/12/22 11:59:03;;;;;;;20.90;13.85;;;;;;;;;;5049681;28;20045;-75
2021/12/22 12:01:29;;;;;;;21.58;14.18;;;;;;;;;;5033625;28;20387;-75
2021/12/22 12:04:12;;;;;;;20.90;13.55;;;;;;;;;;5039710;28;20057;-75
2021/12/22 12:06:51;;;;;;;20.60;13.15;;;;;;;;;;5052169;28;20368;-76
2021/12/22 12:09:22;;;;;;;20.15;13.68;;;;;;;;;;5054292;28;20029;-76
2021/12/22 12:11:55;;;;;;;19.38;13.45;;;;;;;;;;5053431;28;20122;-76
2021/12/22 12:27:21;;;;;;;21.83;14.85;;;;;;;;;;4949276;29;20471;-77
2021/12/22 12:33:52;;;;;;;;;;;;;;;;;;;;;
2021/12/22 12:37:08;;;;;;;21.75;13.57;;;;;;;;;;5047152;28;20023;-76
2021/12/22 12:47:39;;;;;;;22.80;14.40;;;;;;;;;;4875223;29;20036;-77
2021/12/22 13:04:07;;;;;;;22.00;13.48;;;;;;;;;;4702604;30;20049;-77
2021/12/22 13:06:33;;;;;;;21.95;13.93;;;;;;;;;;4802487;29;20057;-74
2021/12/22 13:08:59;;;;;;;22.42;14.00;;;;;;;;;;4826614;29;20494;-76
2021/12/22 13:11:25;;;;;;;23.65;14.50;;;;;;;;;;4957029;28;20050;-76
2021/12/22 13:16:45;;;;;;;20.17;13.98;;;;;;;;;;5022442;28;20430;-77
2021/12/22 13:19:11;;;;;;;22.75;15.32;;;;;;;;;;5017875;28;20365;-76
2021/12/22 13:21:37;;;;;;;20.38;14.00;;;;;;;;;;5028146;28;20129;-75
2021/12/22 13:24:03;;;;;;;22.77;14.18;;;;;;;;;;5020660;28;20119;-75
2021/12/22 13:26:30;;;;;;;22.90;13.52;;;;;;;;;;5017141;28;20041;-76
2021/12/22 13:28:56;;;;;;;21.45;13.63;;;;;;;;;;5017341;28;20405;-76
2021/12/22 13:31:22;;;;;;;19.63;13.25;;;;;;;;;;5033820;28;20056;-76
2021/12/22 13:34:01;;;;;;;19.25;13.15;;;;;;;;;;5015987;28;20037;-76
2021/12/22 13:36:28;;;;;;;18.92;12.70;;;;;;;;;;5003020;28;20045;-77
2021/12/22 13:38:56;;;;;;;20.60;13.95;;;;;;;;;;5047942;28;20515;-77
2021/12/22 13:41:26;;;;;;;19.98;13.82;;;;;;;;;;5016839;28;20118;-77
2021/12/22 13:43:57;;;;;;;20.88;13.48;;;;;;;;;;5034018;28;20057;-85
2021/12/22 13:46:33;;;;;;;22.38;13.70;;;;;;;;;;5003374;28;20128;-75
2021/12/22 13:49:03;;;;;;;19.95;13.43;;;;;;;;;;5013289;28;20037;-74
2021/12/22 13:51:36;;;;;;;22.83;12.38;;;;;;;;;;5018351;28;20050;-75
2021/12/22 13:54:06;;;;;;;22.27;13.30;;;;;;;;;;5020919;28;20049;-76
2021/12/22 13:56:33;;;;;;;23.13;14.15;;;;;;;;;;5020488;28;20355;-78
2021/12/22 13:59:07;;;;;;;22.13;14.65;;;;;;;;;;5018830;28;20041;-76
2021/12/22 14:01:37;;;;;;;20.23;13.32;;;;;;;;;;5032660;28;20053;-77
2021/12/22 14:04:03;;;;;;;23.50;12.88;;;;;;;;;;5016443;28;20073;-74
2021/12/22 14:06:33;;;;;;;19.63;12.88;;;;;;;;;;5000925;28;20046;-74
2021/12/22 14:09:00;;;;;;;19.55;12.93;;;;;;;;;;4999128;28;20036;-74
2021/12/22 14:11:28;;;;;;;20.95;13.63;;;;;;;;;;5020003;28;20064;-76
2021/12/22 14:13:54;;;;;;;20.42;13.35;;;;;;;;;;5014148;28;20535;-79
2021/12/22 14:16:27;;;;;;;19.10;12.40;;;;;;;;;;5036691;28;20060;-76
2021/12/22 14:18:55;;;;;;;19.83;13.65;;;;;;;;;;5035341;28;20059;-76
2021/12/22 14:21:22;;;;;;;24.40;14.82;;;;;;;;;;5040007;28;20081;-74
2021/12/22 14:24:01;;;;;;;21.98;13.60;;;;;;;;;;5053877;28;20037;-75
2021/12/22 14:26:28;;;;;;;24.92;14.25;;;;;;;;;;5039284;28;20123;-76
2021/12/22 14:29:02;;;;;;;22.00;14.10;;;;;;;;;;5024122;28;20058;-76
2021/12/22 14:31:28;;;;;;;21.75;13.98;;;;;;;;;;5032045;28;20048;-75
2021/12/22 14:34:04;;;;;;;19.38;13.27;;;;;;;;;;5035953;28;20044;-75
2021/12/22 14:36:44;;;;;;;19.63;12.75;;;;;;;;;;5042071;28;20436;-76
2021/12/22 14:39:10;;;;;;;21.85;13.50;;;;;;;;;;5040192;28;20118;-78
2021/12/22 14:41:37;;;;;;;19.58;13.18;;;;;;;;;;5036752;28;20045;-74
2021/12/22 14:44:03;;;;;;;20.45;12.98;;;;;;;;;;5038756;28;20029;-77
2021/12/22 14:46:31;;;;;;;21.38;13.23;;;;;;;;;;5056703;28;20041;-76
2021/12/22 14:48:58;;;;;;;21.40;12.45;;;;;;;;;;5024896;28;20048;-76
2021/12/22 14:51:25;;;;;;;20.98;13.63;;;;;;;;;;5056569;28;20044;-79
2021/12/22 14:53:59;;;;;;;20.55;13.70;;;;;;;;;;5035116;28;20394;-76
2021/12/22 14:56:28;;;;;;;21.90;13.63;;;;;;;;;;5020955;28;20083;-76
2021/12/22 14:58:55;;;;;;;22.27;14.38;;;;;;;;;;5027582;28;20094;-76
2021/12/22 15:01:22;;;;;;;23.83;13.98;;;;;;;;;;5055828;28;20055;-77
2021/12/22 15:03:49;;;;;;;25.20;14.07;;;;;;;;;;5024570;28;20060;-77
2021/12/22 15:06:20;;;;;;;22.15;13.98;;;;;;;;;;5038939;28;20056;-72
2021/12/22 15:08:47;;;;;;;23.73;15.25;;;;;;;;;;5046166;28;20136;-74
2021/12/22 15:11:13;;;;;;;23.40;15.15;;;;;;;;;;5019749;28;20445;-72
2021/12/22 15:13:39;;;;;;;31.80;17.58;;;;;;;;;;5019960;28;20041;-72
2021/12/22 15:16:06;;;;;;;30.10;18.20;;;;;;;;;;5036412;28;20041;-74
2021/12/22 15:18:32;;;;;;;33.90;21.85;;;;;;;;;;5020610;28;20164;-75
2021/12/22 15:20:58;;;;;;;37.75;24.02;;;;;;;;;;5031787;28;20120;-74
2021/12/22 15:23:24;;;;;;;40.20;25.05;;;;;;;;;;5032442;28;20449;-73
2021/12/22 15:25:50;;;;;;;40.40;24.92;;;;;;;;;;5021339;28;20053;-73
2021/12/22 15:28:18;;;;;;;37.65;24.38;;;;;;;;;;5013752;28;20416;-72